In Rescue
 
Open Full Screen Window  High Contrast Mode
Wind Gusting 00 knots
06
March 19, 2019 5:49 PM CDT
Weather Information
Wind Direction
  260 °
Wind Speed
  06 kt (7 mph)
Wind Gust
  00 kt (0 mph)
Altimeter
30.16 in
Visibility
10 SM
Temperature
06° C
43° F
Dewpoint
01° C
34° F
Humidity
71%
1hr Rain Fall
00.00 in.
24hr Rain Fall
00.00 in.
Sky Condition
Clear
VFR

METAR KMWM 192249Z AUTO 26006KT 10SM CLR 06/01 A3016 RMK AO2

FAA Disclaimer: The data displayed is for advisory purposes only and is not to be used for flight planning or operations.